Time;durP1;ratioP1;P1;durP2;ratioP2;P2;SDS_P1;SDS_P2;PMS_P1;PMS_P2;Temp;Humidity;BMP_temperature;BMP_pressure;BME280_temperature;BME280_humidity;BME280_pressure;Samples;Min_cycle;Max_cycle;Signal;HPM_P1;HPM_P2
2022/06/22 00:01:52;;;;;;;27.08;15.23;;;;;;;-143.10;100.00;51182.97;4832573;29;20053;-68
2022/06/22 00:04:52;;;;;;;32.58;16.25;;;;;;;-143.10;100.00;51159.47;4847095;29;20058;-68
2022/06/22 00:07:46;;;;;;;28.40;15.45;;;;;;;-143.10;100.00;51151.66;4832829;29;20529;-68
2022/06/22 00:10:49;;;;;;;31.33;16.40;;;;;;;-143.10;100.00;51190.81;4832686;29;20061;-68
2022/06/22 00:13:40;;;;;;;35.08;15.90;;;;;;;-143.10;100.00;51177.09;4833588;29;20594;-68
2022/06/22 00:16:36;;;;;;;31.98;16.83;;;;;;;-143.10;100.00;51179.06;4833946;29;20390;-68
2022/06/22 00:19:49;;;;;;;28.63;16.00;;;;;;;-143.10;100.00;51155.56;4832732;29;20359;-67
2022/06/22 00:22:44;;;;;;;31.88;16.42;;;;;;;-143.10;100.00;51167.31;4833780;29;20137;-68
2022/06/22 00:25:39;;;;;;;31.73;17.23;;;;;;;-143.10;100.00;51147.72;4833883;29;20053;-67
2022/06/22 00:28:28;;;;;;;32.20;15.85;;;;;;;-143.10;100.00;51175.13;4833223;29;20058;-68
2022/06/22 00:31:31;;;;;;;34.30;17.00;;;;;;;-143.10;100.00;51194.72;4840056;29;20072;-68
2022/06/22 00:34:29;;;;;;;39.63;19.08;;;;;;;-143.10;100.00;51181.00;4851959;29;20050;-68
2022/06/22 00:37:38;;;;;;;44.78;23.48;;;;;;;-143.10;100.00;51208.41;4852145;29;20720;-67
2022/06/22 00:40:34;;;;;;;56.33;32.70;;;;;;;-143.10;100.00;51163.38;4864194;29;20060;-68
2022/06/22 00:43:15;;;;;;;68.65;41.53;;;;;;;-143.10;100.00;51186.88;4855410;29;20065;-68
2022/06/22 00:46:27;;;;;;;78.90;45.17;;;;;;;-143.10;100.00;51186.88;4856204;29;20378;-68
2022/06/22 00:49:09;;;;;;;;;;;;;;;-143.10;100.00;51181.00;4855867;29;20064;-68
2022/06/22 00:52:05;;;;;;;87.97;51.55;;;;;;;-143.10;100.00;51188.84;4857767;29;19939;-68
2022/06/22 00:54:47;;;;;;;102.25;60.90;;;;;;;-143.10;100.00;51177.09;4855839;29;20061;-68
2022/06/22 00:57:45;;;;;;;105.07;63.88;;;;;;;-143.10;100.00;51108.56;4855571;29;20426;-67
2022/06/22 01:00:22;;;;;;;116.60;69.05;;;;;;;-143.10;100.00;51214.28;4855885;29;20058;-68
2022/06/22 01:03:21;;;;;;;118.50;71.03;;;;;;;-143.10;100.00;51124.22;4869950;29;20095;-68
2022/06/22 01:06:07;;;;;;;110.67;66.77;;;;;;;-143.10;100.00;51155.56;4855809;29;20046;-68
2022/06/22 01:09:09;;;;;;;104.63;61.83;;;;;;;-143.10;100.00;51175.13;4855167;29;20077;-68
2022/06/22 01:15:30;;;;;;;99.40;59.35;;;;;;;-143.10;100.00;51184.94;4855097;29;20053;-68
2022/06/22 01:18:25;;;;;;;97.32;54.08;;;;;;;-143.10;100.00;51151.66;4854841;29;20137;-67
2022/06/22 01:21:10;;;;;;;85.18;51.90;;;;;;;-143.10;100.00;51182.97;4855315;29;20053;-67
2022/06/22 01:24:08;;;;;;;82.60;51.60;;;;;;;-143.10;100.00;51147.72;4839064;29;20045;-67
2022/06/22 01:27:30;;;;;;;90.05;51.05;;;;;;;-143.10;100.00;51188.84;4854767;29;20137;-68
2022/06/22 01:30:31;;;;;;;92.35;49.63;;;;;;;-143.10;100.00;51169.25;4867824;29;20057;-67
2022/06/22 01:33:33;;;;;;;84.35;49.90;;;;;;;-143.10;100.00;51167.31;4845882;29;20514;-67
2022/06/22 01:36:24;;;;;;;80.38;51.17;;;;;;;-143.10;100.00;51157.50;4836537;29;20060;-68
2022/06/22 01:39:20;;;;;;;84.80;51.30;;;;;;;-143.10;100.00;51167.31;4850456;29;20106;-67
2022/06/22 01:42:32;;;;;;;74.13;46.53;;;;;;;-143.10;100.00;51137.94;4850094;29;20253;-68
2022/06/22 01:45:45;;;;;;;75.85;46.67;;;;;;;-143.10;100.00;51132.06;4835283;29;20086;-65
2022/06/22 01:48:33;;;;;;;70.70;44.10;;;;;;;-143.10;100.00;51165.34;4836072;29;20077;-68
2022/06/22 01:51:33;;;;;;;68.65;42.30;;;;;;;-143.10;100.00;51155.56;4819780;29;20058;-68
2022/06/22 01:54:47;;;;;;;66.15;39.28;;;;;;;-143.10;100.00;51165.34;4835858;29;20062;-67
2022/06/22 01:57:46;;;;;;;55.65;33.35;;;;;;;-143.10;100.00;51155.56;4836003;29;20054;-68
2022/06/22 02:00:29;;;;;;;56.08;33.30;;;;;;;-143.10;100.00;51134.03;4835955;29;20081;-68
2022/06/22 02:03:32;;;;;;;50.95;28.90;;;;;;;-143.10;100.00;51179.06;4835820;29;20054;-67
2022/06/22 02:10:23;;;;;;;43.22;26.55;;;;;;;-143.10;100.00;51159.47;4835766;29;20145;-69
2022/06/22 02:13:35;;;;;;;38.97;23.13;;;;;;;-143.10;100.00;51159.47;4821789;29;20102;-68
2022/06/22 02:16:25;;;;;;;;;;;;;;;-143.10;100.00;51135.97;4850088;29;20386;-68
2022/06/22 02:19:20;;;;;;;31.48;16.50;;;;;;;-143.10;100.00;51141.84;4835896;29;20732;-68
2022/06/22 02:22:02;;;;;;;23.30;15.88;;;;;;;-143.10;100.00;51143.81;4835672;29;20542;-68
2022/06/22 02:24:54;;;;;;;29.98;15.35;;;;;;;-143.10;100.00;51126.19;4835489;29;20057;-68
2022/06/22 02:27:43;;;;;;;30.55;14.52;;;;;;;-143.10;100.00;51135.97;4834812;29;20129;-69
2022/06/22 02:30:32;;;;;;;27.02;13.65;;;;;;;-143.10;100.00;51145.78;4835316;29;20062;-68
2022/06/22 02:33:22;;;;;;;25.35;13.60;;;;;;;-143.10;100.00;51186.88;4850116;29;20045;-68
2022/06/22 02:36:19;;;;;;;27.70;13.45;;;;;;;-143.10;100.00;51137.94;4853754;29;20559;-67
2022/06/22 02:38:58;;;;;;;25.73;12.57;;;;;;;-143.10;100.00;51120.31;4854254;29;20438;-68
2022/06/22 02:44:54;;;;;;;22.23;11.80;;;;;;;-143.10;100.00;51161.44;4853515;29;20050;-68
2022/06/22 02:48:37;;;;;;;22.88;11.38;;;;;;;-143.10;100.00;51130.09;4853205;29;20449;-68
2022/06/22 02:51:30;;;;;;;28.00;12.70;;;;;;;-143.10;100.00;51139.91;4852264;29;20537;-67
2022/06/22 02:54:44;;;;;;;28.23;12.05;;;;;;;-143.10;99.88;51096.81;4853596;29;20064;-69
2022/06/22 02:58:00;;;;;;;24.65;13.07;;;;;;;-143.10;97.86;51089.00;4855524;29;20152;-68
2022/06/22 03:00:42;;;;;;;23.25;12.57;;;;;;;-143.10;99.50;51161.44;4853480;29;20376;-68
2022/06/22 03:03:31;;;;;;;22.88;13.32;;;;;;;-143.10;98.81;51128.16;4865344;29;20053;-68
2022/06/22 03:06:30;;;;;;;26.08;13.52;;;;;;;-143.10;96.12;51108.56;4853891;29;20046;-68
2022/06/22 03:09:08;;;;;;;28.05;14.25;;;;;;;-143.10;99.10;51153.59;4850245;29;20064;-70
2022/06/22 03:12:00;;;;;;;28.17;15.43;;;;;;;-143.10;97.06;51149.69;4853541;29;20057;-68
2022/06/22 03:14:55;;;;;;;35.58;15.85;;;;;;;-143.10;96.50;51149.69;4853003;29;20049;-67
2022/06/22 03:17:43;;;;;;;25.92;14.18;;;;;;;-143.10;95.74;51124.22;4852878;29;20176;-67
2022/06/22 03:20:30;;;;;;;26.23;14.38;;;;;;;-143.10;94.38;51118.34;4850400;29;20068;-68
2022/06/22 03:23:26;;;;;;;27.85;15.27;;;;;;;-143.10;94.80;51128.16;4865002;29;20125;-68
2022/06/22 03:26:27;;;;;;;30.25;15.90;;;;;;;-143.10;93.93;51126.19;4852778;29;20121;-68
2022/06/22 03:29:37;;;;;;;29.00;14.40;;;;;;;-143.10;94.47;51110.53;4852991;29;20134;-68
2022/06/22 03:33:02;;;;;;;30.73;16.17;;;;;;;-143.10;95.47;51114.44;4853533;29;20132;-67
2022/06/22 03:35:59;;;;;;;35.67;16.38;;;;;;;-143.10;94.43;51122.28;4834323;29;20050;-68
2022/06/22 03:38:54;;;;;;;27.30;15.55;;;;;;;-143.10;95.12;51112.50;4832990;29;20058;-69
2022/06/22 03:41:43;;;;;;;26.38;14.35;;;;;;;-143.10;92.87;51118.34;4847726;29;20057;-69
2022/06/22 03:44:44;;;;;;;27.20;16.10;;;;;;;-143.10;91.69;51112.50;4846647;29;20052;-68
2022/06/22 03:47:31;;;;;;;28.98;16.67;;;;;;;-143.10;93.43;51112.50;4833673;29;20818;-68
2022/06/22 03:50:35;;;;;;;30.02;16.02;;;;;;;-143.10;93.22;51104.66;4834044;29;20447;-68
2022/06/22 03:53:47;;;;;;;24.58;15.68;;;;;;;-143.10;93.97;51124.22;4834019;29;20046;-68
2022/06/22 03:56:42;;;;;;;31.65;16.40;;;;;;;-143.10;94.08;51108.56;4833087;29;20145;-67
2022/06/22 03:59:25;;;;;;;28.77;15.50;;;;;;;-143.10;93.48;51137.94;4833902;29;20065;-68
2022/06/22 04:02:14;;;;;;;30.80;16.42;;;;;;;-143.10;92.81;51110.53;4833381;29;20057;-68
2022/06/22 04:04:58;;;;;;;31.35;16.58;;;;;;;-143.10;92.24;51132.06;4834014;29;20050;-67
2022/06/22 04:07:48;;;;;;;25.38;15.35;;;;;;;-143.10;92.77;51141.84;4833512;29;20050;-68
2022/06/22 04:10:51;;;;;;;29.83;15.68;;;;;;;-143.10;96.72;51110.53;4833688;29;20064;-68
2022/06/22 04:13:51;;;;;;;34.70;17.30;;;;;;;-143.10;94.54;51096.81;4833430;29;20121;-67
2022/06/22 04:16:39;;;;;;;31.90;17.10;;;;;;;-143.10;93.61;51100.75;4832685;29;20478;-68
2022/06/22 04:19:41;;;;;;;25.25;14.63;;;;;;;-143.10;90.59;51114.44;4833363;29;20060;-68
2022/06/22 04:22:27;;;;;;;30.65;15.32;;;;;;;-143.10;88.91;51089.00;4833158;29;20390;-67
2022/06/22 04:25:28;;;;;;;28.13;15.18;;;;;;;-143.10;88.62;51090.94;4833205;29;20054;-68
2022/06/22 04:28:14;;;;;;;28.67;14.60;;;;;;;-143.10;90.77;51108.56;4832463;29;20049;-68
2022/06/22 04:31:06;;;;;;;30.50;13.70;;;;;;;-143.10;90.02;51116.41;4833971;29;20077;-68
2022/06/22 04:34:00;;;;;;;28.58;13.95;;;;;;;-143.10;91.31;51130.09;4845245;29;20049;-67
2022/06/22 04:36:56;;;;;;;26.50;13.93;;;;;;;-143.10;89.50;51087.03;4852160;29;20102;-67
2022/06/22 04:39:50;;;;;;;30.30;16.90;;;;;;;-143.10;90.44;51089.00;4852494;29;20053;-67
2022/06/22 04:42:39;;;;;;;29.10;14.38;;;;;;;-143.10;86.98;51106.63;4851642;29;20148;-67
2022/06/22 04:45:29;;;;;;;27.13;13.40;;;;;;;-143.10;84.46;51104.66;4851661;29;20057;-67
2022/06/22 04:48:20;;;;;;;26.02;14.20;;;;;;;-143.10;84.86;51130.09;4851698;29;20058;-68
2022/06/22 04:51:33;;;;;;;22.60;14.38;;;;;;;-143.10;85.37;51087.03;4853693;29;20434;-68
2022/06/22 04:54:47;;;;;;;26.10;14.05;;;;;;;-143.10;86.83;51100.75;4851865;29;20077;-68
2022/06/22 04:57:34;;;;;;;27.50;14.90;;;;;;;-143.10;84.92;51096.81;4851758;29;20068;-68
2022/06/22 05:00:35;;;;;;;27.77;13.70;;;;;;;-143.10;87.60;51079.19;4851753;29;20498;-67
2022/06/22 05:03:25;;;;;;;23.92;13.02;;;;;;;-143.10;83.51;51102.69;4851786;29;20113;-67
2022/06/22 05:06:13;;;;;;;23.80;12.93;;;;;;;-143.10;85.85;51096.81;4852207;29;20057;-67
2022/06/22 05:09:29;;;;;;;26.20;14.30;;;;;;;-143.10;83.85;51104.66;4851563;29;20061;-68
2022/06/22 05:12:26;;;;;;;24.55;14.40;;;;;;;-143.10;88.05;51110.53;4851865;29;20057;-67
2022/06/22 05:15:16;;;;;;;23.50;13.82;;;;;;;-143.10;85.86;51098.78;4850748;29;20077;-67
2022/06/22 05:18:08;;;;;;;31.00;15.63;;;;;;;-143.10;85.11;51098.78;4851332;29;20057;-68
2022/06/22 05:21:10;;;;;;;28.45;15.45;;;;;;;-143.10;87.60;51077.25;4854210;29;20057;-68
2022/06/22 05:24:03;;;;;;;31.95;16.20;;;;;;;-143.10;84.44;51079.19;4849661;29;20065;-68
2022/06/22 05:26:47;;;;;;;28.98;15.30;;;;;;;-143.10;86.72;51116.41;4850442;29;20387;-68
2022/06/22 05:29:45;;;;;;;28.92;15.32;;;;;;;-143.10;85.23;51085.06;4854899;29;20133;-67
2022/06/22 05:32:34;;;;;;;30.42;16.20;;;;;;;-143.10;87.55;51077.25;4854815;29;20050;-68
2022/06/22 05:35:37;;;;;;;24.95;14.48;;;;;;;-143.10;85.81;51106.63;4856643;29;20049;-68
2022/06/22 05:38:33;;;;;;;33.67;15.73;;;;;;;-143.10;84.79;51081.16;4857287;29;20065;-68
2022/06/22 05:41:35;;;;;;;31.55;15.27;;;;;;;-143.10;88.17;51061.59;4856950;29;20053;-65
2022/06/22 05:44:23;;;;;;;26.75;15.48;;;;;;;-143.10;85.77;51098.78;4866815;29;20053;-67
2022/06/22 05:47:18;;;;;;;31.85;14.85;;;;;;;-143.10;86.21;51071.38;4866798;29;20555;-66
2022/06/22 05:50:30;;;;;;;31.48;15.98;;;;;;;-143.10;90.47;51065.50;4834781;29;20050;-66
2022/06/22 05:53:31;;;;;;;25.20;16.25;;;;;;;-143.10;88.34;51063.53;4835247;29;20130;-67
2022/06/22 05:56:37;;;;;;;29.20;15.90;;;;;;;-143.10;86.90;51067.47;4835918;29;20061;-67
2022/06/22 05:59:45;;;;;;;30.13;15.93;;;;;;;-143.10;83.02;51096.81;4834917;29;20054;-67
2022/06/22 06:03:00;;;;;;;34.00;17.98;;;;;;;-143.10;83.93;51073.34;4836016;29;20122;-67
2022/06/22 06:05:55;;;;;;;27.63;15.35;;;;;;;-143.10;89.08;51081.16;4835269;29;20867;-66
2022/06/22 06:08:48;;;;;;;27.70;16.00;;;;;;;-143.10;83.78;51059.63;4835818;29;20062;-66
2022/06/22 06:11:42;;;;;;;26.75;15.18;;;;;;;-143.10;88.48;51075.28;4835560;29;20553;-67
2022/06/22 06:14:28;;;;;;;36.60;17.67;;;;;;;-143.10;90.51;51092.91;4835612;29;20805;-66
2022/06/22 06:17:39;;;;;;;26.67;17.67;;;;;;;-143.10;85.75;51073.34;4835684;29;20117;-66
2022/06/22 06:20:26;;;;;;;26.35;16.42;;;;;;;-143.10;83.95;51065.50;4833117;29;20057;-66
2022/06/22 06:23:36;;;;;;;30.20;17.13;;;;;;;-143.10;88.31;51061.59;4847081;29;20072;-66
2022/06/22 06:30:10;;;;;;;32.88;17.63;;;;;;;-143.10;85.90;51049.84;4853912;29;20903;-67
2022/06/22 06:33:41;;;;;;;33.67;20.67;;;;;;;-143.10;85.12;51055.72;4854023;29;20489;-67
2022/06/22 06:36:22;;;;;;;34.03;20.92;;;;;;;-143.10;82.33;51063.53;4853396;29;20054;-67
2022/06/22 06:39:17;;;;;;;33.08;19.10;;;;;;;-143.10;81.63;51077.25;4851447;29;20054;-66
2022/06/22 06:42:32;;;;;;;32.47;19.88;;;;;;;-143.10;83.74;51075.28;4856917;29;20071;-67
2022/06/22 06:45:30;;;;;;;37.05;22.38;;;;;;;-143.10;86.33;51081.16;4857148;29;20105;-67
2022/06/22 06:48:33;;;;;;;51.22;29.40;;;;;;;-143.10;84.76;51073.34;4845735;29;20382;-68
2022/06/22 06:51:13;;;;;;;60.40;33.15;;;;;;;-143.10;82.21;51073.34;4852974;29;20057;-67
2022/06/22 06:54:08;;;;;;;51.90;33.63;;;;;;;-143.10;83.98;51061.59;4853751;29;20117;-66
2022/06/22 06:56:56;;;;;;;61.25;36.30;;;;;;;-143.10;78.58;51065.50;4852778;29;20492;-66
2022/06/22 06:59:56;;;;;;;65.97;38.85;;;;;;;-143.10;81.68;51034.19;4853352;29;20636;-67
2022/06/22 07:02:35;;;;;;;79.63;43.58;;;;;;;-143.10;87.52;51077.25;4853461;29;20121;-66
2022/06/22 07:05:28;;;;;;;77.30;43.78;;;;;;;-143.10;83.43;51065.50;4852632;29;20111;-67
2022/06/22 07:08:21;;;;;;;70.30;44.25;;;;;;;-143.10;85.14;51092.91;4853203;29;20093;-67
2022/06/22 07:11:52;;;;;;;84.20;46.20;;;;;;;-143.10;83.93;51065.50;4863397;29;20125;-67
2022/06/22 07:14:30;;;;;;;77.20;45.05;;;;;;;-143.10;90.75;51081.16;4853026;29;20049;-67
2022/06/22 07:17:29;;;;;;;70.55;41.83;;;;;;;-143.10;86.22;51061.59;4853033;29;20056;-67
2022/06/22 07:20:11;;;;;;;73.90;43.92;;;;;;;-143.10;84.24;51079.19;4853184;29;20574;-67
2022/06/22 07:23:19;;;;;;;74.47;45.13;;;;;;;-143.10;84.54;51069.41;4853410;29;20771;-66
2022/06/22 07:26:02;;;;;;;71.80;43.85;;;;;;;-143.10;89.42;51057.66;4852952;29;20359;-67
2022/06/22 07:29:28;;;;;;;72.43;42.28;;;;;;;-143.10;87.36;51040.03;4853014;29;20049;-66
2022/06/22 07:32:54;;;;;;;62.15;41.45;;;;;;;-143.10;84.61;51051.78;4851881;29;20064;-66
2022/06/22 07:35:51;;;;;;;66.10;37.72;;;;;;;-143.10;86.38;51057.66;4842277;29;20052;-67
2022/06/22 07:39:12;;;;;;;62.65;40.40;;;;;;;-143.10;85.85;51045.91;4852956;29;20053;-67
2022/06/22 07:42:14;;;;;;;65.93;38.47;;;;;;;-143.10;88.00;51065.50;4846349;29;20061;-67
2022/06/22 07:45:02;;;;;;;58.60;35.35;;;;;;;-143.10;79.85;51081.16;4852041;29;20386;-68
2022/06/22 07:48:04;;;;;;;54.80;33.58;;;;;;;-143.10;83.61;51065.50;4834426;29;20054;-67
2022/06/22 07:50:51;;;;;;;57.10;33.22;;;;;;;-143.10;79.07;51045.91;4833858;29;20054;-65
2022/06/22 07:54:27;;;;;;;48.30;30.88;;;;;;;-143.10;82.14;51049.84;4834694;29;20046;-67
2022/06/22 07:57:19;;;;;;;49.38;27.92;;;;;;;-143.10;79.23;51038.09;4831160;29;20129;-67
2022/06/22 08:00:15;;;;;;;46.08;29.40;;;;;;;-143.10;85.68;51047.88;4833340;29;20114;-67
2022/06/22 08:03:37;;;;;;;50.53;26.45;;;;;;;-143.10;81.86;51042.00;4833379;29;20046;-68
2022/06/22 08:06:37;;;;;;;38.85;24.10;;;;;;;-143.10;77.82;51061.59;4833498;29;20065;-68
2022/06/22 08:09:46;;;;;;;38.47;24.25;;;;;;;-143.10;80.90;51053.75;4833314;29;20085;-66
2022/06/22 08:12:49;;;;;;;38.75;22.80;;;;;;;-143.10;81.01;51040.03;4833667;29;20064;-67
2022/06/22 08:15:47;;;;;;;45.58;24.50;;;;;;;-143.10;82.20;51063.53;4833783;29;20045;-68
2022/06/22 08:18:30;;;;;;;31.05;20.60;;;;;;;-143.10;84.72;51077.25;4832907;29;20054;-68
2022/06/22 08:21:24;;;;;;;40.05;18.83;;;;;;;-143.10;78.48;51065.50;4833148;29;20444;-67
2022/06/22 08:24:09;;;;;;;33.03;18.90;;;;;;;-143.10;80.14;51043.97;4833605;29;20140;-67
2022/06/22 08:27:01;;;;;;;32.50;19.42;;;;;;;-143.10;83.63;51051.78;4833906;29;20064;-66
2022/06/22 08:29:46;;;;;;;34.72;19.13;;;;;;;-143.10;83.02;51057.66;4832933;29;20050;-67
2022/06/22 08:32:43;;;;;;;32.40;16.58;;;;;;;-143.10;82.01;50998.94;4833273;29;20745;-67
2022/06/22 08:35:32;;;;;;;35.13;17.05;;;;;;;-143.10;82.74;51042.00;4833156;29;20066;-67
2022/06/22 08:38:30;;;;;;;31.65;17.15;;;;;;;-143.10;78.51;51034.19;4833753;29;20162;-67
2022/06/22 08:41:47;;;;;;;34.03;17.00;;;;;;;-143.10;80.74;51075.28;4833221;29;20146;-67
2022/06/22 08:45:32;;;;;;;32.10;16.85;;;;;;;-143.10;78.63;51045.91;4833526;29;20061;-67
2022/06/22 08:49:04;;;;;;;26.45;14.85;;;;;;;-143.10;76.53;51042.00;4813934;29;20611;-66
2022/06/22 08:52:00;;;;;;;29.10;16.42;;;;;;;-143.10;81.67;51026.34;4851626;29;20418;-68
2022/06/22 08:54:58;;;;;;;31.80;15.98;;;;;;;-143.10;82.76;51034.19;4853309;29;20059;-67
2022/06/22 08:58:12;;;;;;;25.30;13.93;;;;;;;-143.10;80.26;51016.56;4850937;29;20045;-67
2022/06/22 09:01:34;;;;;;;33.55;15.48;;;;;;;-143.10;77.93;51032.22;4850881;29;20058;-67
2022/06/22 09:04:41;;;;;;;31.77;17.00;;;;;;;-143.10;77.25;51063.53;4855243;29;20279;-67
2022/06/22 09:08:06;;;;;;;35.20;15.10;;;;;;;-143.10;78.43;51030.25;4855276;29;20061;-67
2022/06/22 09:11:24;;;;;;;36.50;14.55;;;;;;;-143.10;77.86;51030.25;4816518;29;20168;-68
2022/06/22 09:14:31;;;;;;;25.00;12.48;;;;;;;-143.10;79.80;51053.75;4840572;29;20164;-67
2022/06/22 09:17:39;;;;;;;29.38;12.55;;;;;;;-143.10;80.15;51057.66;4854973;29;20180;-67
2022/06/22 09:20:27;;;;;;;31.33;15.90;;;;;;;-143.10;78.05;51049.84;4855034;29;20065;-68
2022/06/22 09:23:43;;;;;;;33.38;18.67;;;;;;;-143.10;75.51;51022.44;4854781;29;20061;-67
2022/06/22 09:26:41;;;;;;;28.75;14.90;;;;;;;-143.10;77.00;51051.78;4854951;29;20358;-67
2022/06/22 09:29:44;;;;;;;27.42;14.65;;;;;;;-143.10;76.25;51024.38;4854947;29;20510;-67
2022/06/22 09:33:04;;;;;;;31.48;15.35;;;;;;;-143.10;79.01;51026.34;4854384;29;20061;-67
2022/06/22 09:35:58;;;;;;;30.02;16.13;;;;;;;-143.10;78.80;51053.75;4854774;29;20053;-67
2022/06/22 09:39:25;;;;;;;23.58;13.85;;;;;;;-143.10;79.60;51030.25;4854474;29;20069;-66
2022/06/22 10:33:32;;;;;;;35.13;15.13;;;;;;;-143.10;76.08;51051.78;4860128;29;20565;-67
2022/06/22 10:36:30;;;;;;;28.20;14.30;;;;;;;-143.10;77.65;51051.78;4852928;29;20080;-67
2022/06/22 10:39:21;;;;;;;35.00;12.88;;;;;;;-143.10;80.52;51053.75;4853368;29;20077;-66
2022/06/22 10:46:07;;;;;;;31.45;14.15;;;;;;;-143.10;75.75;51042.00;4853745;29;20058;-67
2022/06/22 10:49:13;;;;;;;32.03;13.60;;;;;;;-143.10;74.46;51036.13;4853689;29;20138;-67
2022/06/22 10:52:17;;;;;;;30.13;12.68;;;;;;;-143.10;74.56;51069.41;4855906;29;20053;-68
2022/06/22 10:55:43;;;;;;;32.53;13.52;;;;;;;-143.10;75.33;51055.72;4853361;29;20117;-67
2022/06/22 10:58:43;;;;;;;32.30;13.15;;;;;;;-143.10;77.08;51022.44;4853178;29;20144;-68
2022/06/22 11:02:01;;;;;;;32.88;13.68;;;;;;;-143.10;75.88;51006.75;4853850;29;20049;-68
2022/06/22 11:05:47;;;;;;;26.90;12.40;;;;;;;-143.10;74.94;51049.84;4853811;29;20113;-68
2022/06/22 11:09:01;;;;;;;33.58;12.30;;;;;;;-143.10;72.84;51022.44;4831991;29;20057;-68
2022/06/22 11:12:02;;;;;;;30.77;11.68;;;;;;;-143.10;72.56;51042.00;4832848;29;20053;-68
2022/06/22 11:15:34;;;;;;;36.40;13.48;;;;;;;-143.10;73.36;51014.59;4853062;29;20140;-67
2022/06/22 11:18:36;;;;;;;39.92;15.30;;;;;;;-143.10;73.52;51049.84;4850898;29;20058;-67
2022/06/22 11:21:52;;;;;;;30.90;13.73;;;;;;;-143.10;74.20;51042.00;4853077;29;20248;-67
2022/06/22 11:25:08;;;;;;;29.98;13.40;;;;;;;-143.10;74.29;51006.75;4851961;29;20402;-67
2022/06/22 11:32:03;;;;;;;38.55;14.73;;;;;;;-143.10;73.31;51038.09;4852724;29;20110;-68
2022/06/22 11:34:59;;;;;;;32.13;13.20;;;;;;;-143.10;75.20;51012.63;4851235;29;20053;-68
2022/06/22 11:38:21;;;;;;;28.55;13.45;;;;;;;-143.10;73.92;51014.59;4852469;29;20073;-67
2022/06/22 11:41:09;;;;;;;29.75;14.95;;;;;;;-143.10;74.17;51014.59;4852924;29;20136;-68
2022/06/22 11:44:22;;;;;;;41.90;14.27;;;;;;;-143.10;73.52;51036.13;4865818;29;20041;-67
2022/06/22 11:47:07;;;;;;;29.38;13.55;;;;;;;-143.10;74.96;51034.19;4851894;29;20742;-67
2022/06/22 11:50:21;;;;;;;37.33;13.65;;;;;;;-143.10;70.83;50995.03;4818020;29;20076;-67
2022/06/22 11:53:02;;;;;;;25.88;13.23;;;;;;;-143.10;71.85;51024.38;4834441;29;20053;-66
2022/06/22 11:56:28;;;;;;;31.38;12.93;;;;;;;-143.10;70.52;51040.03;4833720;29;20141;-66
2022/06/22 11:59:40;;;;;;;35.70;12.40;;;;;;;-143.10;68.60;51006.75;4833346;29;20054;-66
2022/06/22 12:02:38;;;;;;;31.75;13.23;;;;;;;-143.10;68.32;51073.34;4833774;29;20050;-66
2022/06/22 12:06:00;;;;;;;27.33;13.27;;;;;;;-143.10;70.90;51049.84;4833549;29;20076;-66
2022/06/22 12:08:54;;;;;;;30.10;12.05;;;;;;;-143.10;72.38;51004.81;4848349;29;20057;-66
2022/06/22 12:12:22;;;;;;;32.85;12.25;;;;;;;-143.10;72.40;51040.03;4834024;29;20054;-66
2022/06/22 12:15:37;;;;;;;34.65;12.48;;;;;;;-143.10;69.90;51004.81;4832736;29;20065;-66
2022/06/22 12:19:23;;;;;;;30.10;11.60;;;;;;;-143.10;71.22;51016.56;4832138;29;20054;-67
2022/06/22 12:22:07;;;;;;;30.60;10.75;;;;;;;-143.10;70.47;51024.38;4831095;29;20065;-66
2022/06/22 12:25:18;;;;;;;33.80;11.93;;;;;;;-143.10;75.66;51055.72;4817990;29;20081;-66
2022/06/22 12:27:59;;;;;;;27.80;10.80;;;;;;;-143.10;69.20;51045.91;4852356;29;20049;-66
2022/06/22 12:31:13;;;;;;;29.05;10.80;;;;;;;-143.10;75.26;51014.59;4851191;29;20666;-66
2022/06/22 12:34:17;;;;;;;26.70;10.10;;;;;;;-143.10;69.84;51030.25;4851958;29;20049;-66
2022/06/22 12:37:42;;;;;;;25.95;9.73;;;;;;;-143.10;73.35;51034.19;4834720;29;20061;-66
2022/06/22 12:40:58;;;;;;;24.10;8.90;;;;;;;-143.10;72.70;51026.34;4837141;29;20134;-66
2022/06/22 12:43:56;;;;;;;24.02;9.15;;;;;;;-143.10;75.36;51010.69;4837680;29;20050;-66
2022/06/22 12:46:53;;;;;;;33.17;9.63;;;;;;;-143.10;73.52;51002.84;4819238;29;20328;-67
2022/06/22 12:50:16;;;;;;;32.53;9.65;;;;;;;-143.10;78.92;51012.63;4836096;29;20049;-67
2022/06/22 12:53:11;;;;;;;26.92;8.90;;;;;;;-143.10;72.60;51010.69;4818167;29;20047;-67
2022/06/22 12:56:09;;;;;;;28.85;9.20;;;;;;;-143.10;73.29;51026.34;4818198;29;20450;-67
2022/06/22 12:59:02;;;;;;;22.98;9.27;;;;;;;-143.10;74.01;51038.09;4818616;29;20046;-67
2022/06/22 13:01:52;;;;;;;21.85;8.23;;;;;;;-143.10;75.21;51038.09;4818217;29;20062;-67
2022/06/22 13:04:37;;;;;;;32.88;9.52;;;;;;;-143.10;81.28;51049.84;4818436;29;20140;-67
2022/06/22 13:07:26;;;;;;;23.27;9.32;;;;;;;-143.10;76.88;51022.44;4818302;29;20523;-67
2022/06/22 13:10:12;;;;;;;30.45;8.80;;;;;;;-143.10;72.35;51053.75;4818731;29;20553;-67
2022/06/22 13:13:21;;;;;;;34.40;10.15;;;;;;;-143.10;75.31;51034.19;4818598;29;20063;-67
2022/06/22 13:16:17;;;;;;;33.80;8.23;;;;;;;-143.10;74.56;51042.00;4818100;29;20050;-67
2022/06/22 13:19:33;;;;;;;28.05;9.50;;;;;;;-143.10;76.25;51018.50;4818560;29;20478;-67
2022/06/22 13:22:44;;;;;;;23.48;8.10;;;;;;;-143.10;77.38;51012.63;4819533;29;20050;-67
2022/06/22 13:25:25;;;;;;;40.05;9.63;;;;;;;-143.10;81.02;51022.44;4836266;29;20096;-67
2022/06/22 13:28:41;;;;;;;33.22;8.85;;;;;;;-143.10;80.94;51045.91;4836222;29;20111;-67
2022/06/22 13:31:34;;;;;;;26.27;8.00;;;;;;;-143.10;83.84;51040.03;4835990;29;20462;-67
2022/06/22 13:34:32;;;;;;;29.77;8.02;;;;;;;-143.10;87.37;51063.53;4834904;29;20461;-67
2022/06/22 13:37:33;;;;;;;25.95;9.30;;;;;;;-143.10;85.79;51043.97;4854464;29;20108;-66
2022/06/22 13:40:45;;;;;;;26.65;10.85;;;;;;;-143.10;84.08;51061.59;4854049;29;20118;-66
2022/06/22 13:44:06;;;;;;;32.47;11.55;;;;;;;-143.10;87.05;51042.00;4852504;29;20467;-66
2022/06/22 13:47:10;;;;;;;26.90;10.15;;;;;;;-143.10;83.94;51053.75;4849527;29;20073;-66
2022/06/22 13:50:19;;;;;;;31.58;10.95;;;;;;;-143.10;87.90;51028.31;4854759;29;20121;-66
2022/06/22 13:53:04;;;;;;;36.72;10.95;;;;;;;-143.10;87.68;51057.66;4854049;29;20153;-67
2022/06/22 13:56:47;;;;;;;31.83;9.90;;;;;;;-143.10;86.45;51045.91;4854595;29;20065;-65
2022/06/22 13:59:42;;;;;;;33.20;10.35;;;;;;;-143.10;86.09;51057.66;4852923;29;20061;-67
2022/06/22 14:03:06;;;;;;;37.45;9.57;;;;;;;-143.10;86.90;51045.91;4854585;29;20073;-68
2022/06/22 14:06:08;;;;;;;32.85;9.48;;;;;;;-143.10;88.28;51053.75;4854659;29;20117;-68
2022/06/22 14:09:11;;;;;;;36.65;10.13;;;;;;;-143.10;89.12;51043.97;4854072;29;20045;-66
2022/06/22 14:12:16;;;;;;;31.52;11.38;;;;;;;-143.10;88.75;51012.63;4854188;29;20209;-66
2022/06/22 14:15:28;;;;;;;31.65;12.63;;;;;;;-143.10;88.68;51043.97;4854310;29;20053;-66
2022/06/22 14:18:36;;;;;;;44.67;13.32;;;;;;;-143.10;90.65;51042.00;4853207;29;20451;-67
2022/06/22 14:21:35;;;;;;;41.00;14.02;;;;;;;-143.10;90.62;51065.50;4854223;29;20065;-67
2022/06/22 14:24:47;;;;;;;38.22;14.85;;;;;;;-143.10;89.71;51065.50;4853741;29;20136;-67
2022/06/22 14:27:51;;;;;;;46.97;16.45;;;;;;;-143.10;91.53;51042.00;4854244;29;20392;-67
2022/06/22 14:31:06;;;;;;;46.15;20.55;;;;;;;-143.10;93.93;51018.50;4854105;29;20170;-67
2022/06/22 14:34:07;;;;;;;41.78;20.08;;;;;;;-143.10;96.02;51038.09;4852458;29;20046;-68
2022/06/22 14:37:25;;;;;;;50.55;20.95;;;;;;;-143.10;97.47;51042.00;4853535;29;20170;-67
2022/06/22 14:40:39;;;;;;;40.03;19.73;;;;;;;-143.10;97.82;51030.25;4872424;29;20068;-68
2022/06/22 14:43:57;;;;;;;;;;;;;;;-143.10;98.85;51051.78;4874021;29;20128;-68
2022/06/22 14:47:07;;;;;;;39.53;21.75;;;;;;;-143.10;100.00;51057.66;4860343;29;19924;-67